Time;durP1;ratioP1;P1;durP2;ratioP2;P2;SDS_P1;SDS_P2;PMS_P1;PMS_P2;Temp;Humidity;BMP_temperature;BMP_pressure;BME280_temperature;BME280_humidity;BME280_pressure;Samples;Min_cycle;Max_cycle;Signal;HPM_P1;HPM_P2
2021/11/02 00:02:05;;;;;;;6.22;5.65;;;7.90;99.90;;;;;;5063516;28;20197;-80
2021/11/02 00:04:31;;;;;;;6.00;5.30;;;8.00;99.90;;;;;;5075993;28;20212;-79
2021/11/02 00:06:58;;;;;;;6.95;5.15;;;8.10;99.90;;;;;;5076619;28;20575;-81
2021/11/02 00:09:31;;;;;;;5.28;4.82;;;8.20;99.90;;;;;;5071161;28;20248;-79
2021/11/02 00:11:58;;;;;;;4.07;3.78;;;8.30;99.90;;;;;;5059256;28;20252;-79
2021/11/02 00:14:28;;;;;;;5.05;4.50;;;8.30;99.90;;;;;;5076283;28;20201;-80
2021/11/02 00:16:58;;;;;;;4.50;4.10;;;8.30;99.90;;;;;;5075762;28;20413;-79
2021/11/02 00:19:27;;;;;;;4.22;3.80;;;8.40;99.90;;;;;;5075420;28;20248;-80
2021/11/02 00:21:56;;;;;;;4.95;3.83;;;8.40;99.90;;;;;;5072047;28;20670;-80
2021/11/02 00:24:43;;;;;;;3.65;3.33;;;8.50;99.90;;;;;;5071195;28;20216;-80
2021/11/02 00:27:10;;;;;;;4.43;3.55;;;8.50;99.90;;;;;;5070278;28;20332;-78
2021/11/02 00:29:38;;;;;;;6.65;4.22;;;8.50;99.90;;;;;;5055854;28;20737;-80
2021/11/02 00:32:05;;;;;;;5.20;3.00;;;8.40;99.90;;;;;;5056963;28;20197;-80
2021/11/02 00:34:32;;;;;;;3.17;2.63;;;8.20;99.90;;;;;;5076243;28;20209;-81
2021/11/02 00:36:59;;;;;;;3.63;3.35;;;8.20;99.90;;;;;;5067201;28;20675;-81
2021/11/02 00:39:26;;;;;;;3.60;3.30;;;8.10;99.90;;;;;;5057407;28;20648;-81
2021/11/02 00:41:52;;;;;;;3.10;2.80;;;8.10;99.90;;;;;;5056372;28;20202;-81
2021/11/02 00:44:21;;;;;;;4.32;3.45;;;8.20;99.90;;;;;;5055948;28;20210;-80
2021/11/02 00:46:50;;;;;;;3.55;3.08;;;8.20;99.90;;;;;;5055269;28;20210;-79
2021/11/02 00:49:18;;;;;;;3.67;3.40;;;8.20;99.90;;;;;;5056047;28;20272;-80
2021/11/02 00:51:45;;;;;;;3.58;3.28;;;8.10;99.90;;;;;;5070534;28;20670;-81
2021/11/02 00:54:13;;;;;;;3.92;3.50;;;8.10;99.90;;;;;;5075524;28;20295;-81
2021/11/02 00:56:40;;;;;;;2.30;2.20;;;8.10;99.90;;;;;;5090316;28;20205;-81
2021/11/02 00:59:07;;;;;;;2.97;2.67;;;8.00;99.90;;;;;;5079986;28;20229;-80
2021/11/02 01:01:34;;;;;;;3.58;2.92;;;8.10;99.90;;;;;;5067994;28;20212;-81
2021/11/02 01:04:04;;;;;;;3.17;2.88;;;8.00;99.90;;;;;;5064338;28;20202;-80
2021/11/02 01:06:31;;;;;;;2.60;2.40;;;8.00;99.90;;;;;;5075994;28;20675;-80
2021/11/02 01:08:58;;;;;;;5.32;2.80;;;8.00;99.90;;;;;;5055883;28;20225;-80
2021/11/02 01:11:25;;;;;;;3.78;3.47;;;8.10;99.90;;;;;;5055309;28;20213;-80
2021/11/02 01:13:53;;;;;;;3.50;3.28;;;8.10;99.90;;;;;;5055808;28;20206;-81
2021/11/02 01:16:23;;;;;;;4.70;4.28;;;8.30;99.90;;;;;;5055656;28;20206;-80
2021/11/02 01:18:50;;;;;;;3.38;3.17;;;8.30;99.90;;;;;;5055623;28;20218;-80
2021/11/02 01:21:18;;;;;;;3.80;3.45;;;8.40;99.90;;;;;;5054806;28;20209;-81
2021/11/02 01:23:45;;;;;;;3.00;2.70;;;8.40;99.90;;;;;;5055529;28;20252;-80
2021/11/02 01:26:12;;;;;;;3.50;2.85;;;8.50;99.90;;;;;;5055781;28;20206;-80
2021/11/02 01:31:06;;;;;;;6.00;3.55;;;8.40;99.90;;;;;;5053097;28;20280;-80
2021/11/02 01:33:33;;;;;;;2.60;2.13;;;8.40;99.90;;;;;;5044647;28;20210;-79
2021/11/02 01:36:00;;;;;;;4.57;2.83;;;8.40;99.90;;;;;;5034272;28;20209;-80
2021/11/02 01:38:28;;;;;;;3.67;2.50;;;8.30;99.90;;;;;;5051488;28;20706;-79
2021/11/02 01:40:56;;;;;;;2.35;2.15;;;8.30;99.90;;;;;;5040321;28;20245;-80
2021/11/02 01:43:23;;;;;;;2.10;2.00;;;8.20;99.90;;;;;;5041576;28;20198;-80
2021/11/02 01:45:50;;;;;;;2.83;1.77;;;8.30;99.90;;;;;;5047208;28;20204;-79
2021/11/02 01:48:19;;;;;;;2.63;1.90;;;8.30;99.90;;;;;;5034172;28;20656;-80
2021/11/02 01:50:46;;;;;;;2.50;2.30;;;8.30;99.90;;;;;;5039066;28;20240;-79
2021/11/02 01:53:13;;;;;;;2.08;1.85;;;8.30;99.90;;;;;;5050305;28;20201;-79
2021/11/02 01:55:42;;;;;;;1.63;1.52;;;8.30;99.90;;;;;;5034611;28;20198;-79
2021/11/02 01:58:11;;;;;;;2.22;1.77;;;8.30;99.90;;;;;;5036861;28;20229;-79
2021/11/02 02:00:38;;;;;;;2.60;1.85;;;8.30;99.90;;;;;;5050298;28;20221;-80
2021/11/02 02:03:11;;;;;;;1.83;1.73;;;8.20;99.90;;;;;;5045250;28;20210;-79
2021/11/02 02:05:48;;;;;;;2.10;1.75;;;8.20;99.90;;;;;;5034570;28;20211;-79
2021/11/02 02:08:22;;;;;;;1.05;1.05;;;8.30;99.90;;;;;;5044297;28;20208;-79
2021/11/02 02:10:58;;;;;;;1.73;1.63;;;8.20;99.90;;;;;;5054072;28;20737;-79
2021/11/02 02:13:34;;;;;;;3.25;3.05;;;8.10;99.90;;;;;;5043686;28;20637;-79
2021/11/02 02:16:11;;;;;;;4.20;2.22;;;8.00;99.90;;;;;;5041206;28;20202;-80
2021/11/02 02:18:43;;;;;;;1.80;1.30;;;8.00;99.90;;;;;;5033755;28;20229;-79
2021/11/02 02:21:19;;;;;;;2.50;1.50;;;7.90;99.90;;;;;;5047062;28;20580;-79
2021/11/02 02:24:14;;;;;;;6.15;2.50;;;8.00;99.90;;;;;;5052869;28;20675;-79
2021/11/02 02:26:55;;;;;;;1.58;1.48;;;8.00;99.90;;;;;;5022032;28;20209;-79
2021/11/02 02:29:25;;;;;;;2.97;2.00;;;8.00;99.90;;;;;;5050854;28;20229;-79
2021/11/02 02:31:54;;;;;;;2.65;1.80;;;8.00;99.90;;;;;;5045453;28;20209;-79
2021/11/02 02:34:22;;;;;;;3.10;1.77;;;7.90;99.90;;;;;;5032947;28;20203;-79
2021/11/02 02:36:51;;;;;;;2.00;1.90;;;7.90;99.90;;;;;;5033295;28;20227;-79
2021/11/02 02:39:19;;;;;;;2.40;2.20;;;7.80;99.90;;;;;;5033213;28;20227;-79
2021/11/02 02:41:47;;;;;;;2.63;2.42;;;7.80;99.90;;;;;;5036939;28;20238;-79
2021/11/02 02:44:15;;;;;;;3.40;2.63;;;7.80;99.90;;;;;;5042949;28;20201;-79
2021/11/02 02:46:44;;;;;;;3.05;2.63;;;7.90;99.90;;;;;;5052639;28;20221;-79
2021/11/02 02:49:12;;;;;;;3.72;3.55;;;7.80;99.90;;;;;;5042797;28;20585;-79
2021/11/02 02:51:42;;;;;;;3.10;2.10;;;7.80;99.90;;;;;;5033871;28;20304;-79
2021/11/02 02:54:10;;;;;;;5.93;2.00;;;7.70;99.90;;;;;;5036369;28;20655;-79
2021/11/02 02:56:41;;;;;;;4.95;2.42;;;7.70;99.90;;;;;;5036929;28;20206;-79
2021/11/02 02:59:10;;;;;;;2.35;2.05;;;7.70;99.90;;;;;;5032757;28;20284;-79
2021/11/02 03:01:37;;;;;;;4.20;3.03;;;7.80;99.90;;;;;;5046449;28;20237;-79
2021/11/02 03:04:08;;;;;;;6.93;3.60;;;7.70;99.90;;;;;;5041443;28;20211;-79
2021/11/02 03:06:50;;;;;;;2.45;1.85;;;7.80;99.90;;;;;;5051933;28;20228;-79
2021/11/02 03:09:17;;;;;;;2.97;2.10;;;7.80;99.90;;;;;;5048792;28;20666;-79
2021/11/02 03:11:45;;;;;;;3.40;3.17;;;7.70;99.90;;;;;;5050519;28;20209;-79
2021/11/02 03:14:14;;;;;;;2.67;2.47;;;7.60;99.90;;;;;;5021600;28;20206;-79
2021/11/02 03:16:51;;;;;;;5.47;3.47;;;7.50;99.90;;;;;;5034981;28;20203;-79
2021/11/02 03:20:00;;;;;;;3.55;2.20;;;7.60;99.90;;;;;;5052176;28;20229;-79
2021/11/02 03:45:03;;;;;;;6.03;3.80;;;7.40;99.90;;;;;;5052073;28;20275;-79
2021/11/02 03:50:37;;;;;;;2.78;2.58;;;7.30;99.90;;;;;;5041230;28;20226;-78
2021/11/02 03:56:01;;;;;;;3.63;3.13;;;7.40;99.90;;;;;;5040658;28;20215;-78
2021/11/02 03:58:33;;;;;;;1.80;1.70;;;7.40;99.90;;;;;;5055050;28;20201;-79
2021/11/02 05:47:29;;;;;;;3.95;3.65;;;6.30;99.90;;;;;;5046730;28;20224;-78
2021/11/02 05:50:06;;;;;;;3.17;2.50;;;6.30;99.90;;;;;;5034087;28;20234;-79
2021/11/02 05:52:51;;;;;;;3.15;2.85;;;6.30;99.90;;;;;;5043080;28;20259;-79
2021/11/02 05:55:40;;;;;;;5.65;3.22;;;6.30;99.90;;;;;;5051748;28;20698;-79
2021/11/02 05:58:12;;;;;;;2.97;2.78;;;6.30;99.90;;;;;;5034264;28;20583;-78
2021/11/02 06:00:49;;;;;;;4.10;2.90;;;6.30;99.90;;;;;;5035439;28;20226;-79
2021/11/02 06:06:07;;;;;;;2.42;2.33;;;6.30;99.90;;;;;;5051184;28;20194;-79
2021/11/02 06:08:52;;;;;;;3.20;1.98;;;6.20;99.90;;;;;;5050236;28;20202;-79
2021/11/02 06:28:13;;;;;;;3.35;3.03;;;6.20;99.90;;;;;;5037132;28;20205;-79
2021/11/02 06:30:46;;;;;;;3.25;2.60;;;6.20;99.90;;;;;;5022356;28;20219;-78
2021/11/02 06:33:23;;;;;;;3.50;2.42;;;6.20;99.90;;;;;;5029151;28;20207;-78
2021/11/02 06:36:04;;;;;;;4.70;3.22;;;6.20;99.90;;;;;;5023945;28;20198;-79
2021/11/02 06:38:59;;;;;;;3.35;3.05;;;6.10;99.90;;;;;;5024569;28;20735;-78
2021/11/02 06:42:06;;;;;;;3.80;3.42;;;6.20;99.90;;;;;;5035971;28;20817;-78
2021/11/02 06:56:08;;;;;;;4.18;2.83;;;6.20;99.90;;;;;;5013019;28;20203;-78
2021/11/02 07:15:31;;;;;;;6.97;4.20;;;6.60;99.90;;;;;;5014194;28;20231;-79
2021/11/02 07:18:06;;;;;;;3.83;3.53;;;6.70;99.90;;;;;;5039115;28;20208;-78
2021/11/02 07:20:43;;;;;;;3.63;3.33;;;6.80;99.90;;;;;;5044774;28;20245;-79
2021/11/02 07:23:20;;;;;;;4.38;3.97;;;6.80;99.90;;;;;;5034193;28;20679;-79
2021/11/02 07:25:57;;;;;;;6.53;3.80;;;7.00;99.90;;;;;;5044681;28;20217;-78
2021/11/02 08:46:57;;;;;;;1.50;1.40;;;10.50;99.90;;;;;;4999603;28;20224;-82
2021/11/02 08:49:25;;;;;;;1.83;1.65;;;10.40;99.90;;;;;;5005318;28;20479;-81
2021/11/02 08:51:55;;;;;;;1.07;1.00;;;10.50;99.90;;;;;;5016752;28;20695;-81
2021/11/02 08:54:24;;;;;;;3.60;1.30;;;10.70;99.90;;;;;;5017097;28;20447;-81
2021/11/02 08:56:55;;;;;;;2.50;1.40;;;10.50;99.90;;;;;;5016673;28;20483;-81
2021/11/02 08:59:22;;;;;;;1.50;0.90;;;10.40;99.90;;;;;;5013747;28;20483;-81
2021/11/02 09:01:56;;;;;;;1.85;1.38;;;10.20;99.90;;;;;;5016844;28;20456;-81
2021/11/02 09:04:30;;;;;;;2.65;1.30;;;10.10;99.90;;;;;;5013681;28;20212;-82
2021/11/02 09:07:01;;;;;;;2.85;1.40;;;10.10;99.90;;;;;;5016564;28;20206;-81
2021/11/02 09:09:31;;;;;;;1.73;1.63;;;10.10;99.90;;;;;;5016939;28;20225;-81
2021/11/02 09:12:03;;;;;;;2.63;1.77;;;10.20;99.90;;;;;;5018366;28;20852;-80
2021/11/02 09:14:35;;;;;;;1.43;1.33;;;10.10;99.90;;;;;;5018265;28;20268;-83
2021/11/02 09:17:04;;;;;;;1.58;1.23;;;10.10;99.90;;;;;;5018575;28;20460;-81
2021/11/02 09:19:33;;;;;;;2.75;2.15;;;9.80;99.90;;;;;;5022763;28;20233;-82
2021/11/02 09:22:04;;;;;;;3.53;1.23;;;9.70;99.90;;;;;;5025212;28;20585;-84
2021/11/02 09:24:31;;;;;;;3.72;2.83;;;9.50;99.90;;;;;;5022899;28;20278;-84
2021/11/02 09:27:01;;;;;;;1.67;1.42;;;9.30;99.90;;;;;;4990603;28;20209;-81
2021/11/02 09:29:29;;;;;;;2.13;1.92;;;9.20;99.90;;;;;;4990478;28;20252;-81
2021/11/02 09:31:57;;;;;;;1.80;1.70;;;9.00;99.90;;;;;;4997013;28;20231;-80
2021/11/02 09:34:24;;;;;;;2.03;1.92;;;8.90;99.90;;;;;;5018168;28;20575;-81
2021/11/02 09:36:58;;;;;;;2.65;2.00;;;8.80;99.90;;;;;;5019041;28;20211;-81
2021/11/02 09:39:30;;;;;;;3.45;1.98;;;8.60;99.90;;;;;;5019572;28;20229;-81
2021/11/02 09:42:37;;;;;;;2.42;1.70;;;8.50;99.90;;;;;;5018718;28;20358;-81
2021/11/02 09:45:42;;;;;;;2.95;1.85;;;8.70;99.90;;;;;;5018963;28;20567;-81
2021/11/02 09:48:59;;;;;;;2.30;1.90;;;8.70;99.90;;;;;;5019114;28;20595;-81
2021/11/02 09:52:15;;;;;;;1.90;1.77;;;8.70;99.90;;;;;;5013952;28;20232;-81
2021/11/02 09:55:33;;;;;;;2.83;1.85;;;8.70;99.90;;;;;;5019884;28;20204;-81
2021/11/02 09:58:26;;;;;;;1.60;1.50;;;8.80;99.90;;;;;;4968009;28;20194;-82
2021/11/02 10:01:04;;;;;;;3.60;3.10;;;8.90;99.90;;;;;;4958452;28;20224;-80
2021/11/02 10:04:04;;;;;;;1.50;1.40;;;8.90;99.90;;;;;;5008531;28;20209;-82
2021/11/02 10:06:46;;;;;;;6.60;2.15;;;8.90;99.90;;;;;;5016790;28;20241;-80
2021/11/02 10:09:32;;;;;;;2.63;2.05;;;9.00;99.90;;;;;;5017306;28;20310;-80
2021/11/02 10:12:07;;;;;;;5.15;1.98;;;9.00;99.90;;;;;;5017856;28;20232;-80
2021/11/02 10:14:59;;;;;;;2.22;2.03;;;9.00;99.90;;;;;;5018615;28;20207;-80
2021/11/02 10:18:08;;;;;;;2.78;2.50;;;8.80;99.90;;;;;;5017754;28;20211;-81
2021/11/02 10:21:00;;;;;;;2.92;2.72;;;8.70;99.90;;;;;;5019252;28;20249;-80
2021/11/02 10:23:44;;;;;;;1.73;1.63;;;8.80;99.90;;;;;;4989494;28;20209;-82
2021/11/02 10:26:26;;;;;;;2.13;2.00;;;8.70;99.90;;;;;;5018299;28;20216;-80
2021/11/02 10:29:58;;;;;;;3.05;2.20;;;8.60;99.90;;;;;;5018399;28;20238;-80
2021/11/02 10:32:29;;;;;;;4.55;1.70;;;8.60;99.90;;;;;;4976489;28;20283;-82
2021/11/02 10:35:03;;;;;;;3.72;2.50;;;8.50;99.90;;;;;;4959047;28;20209;-82
2021/11/02 10:37:36;;;;;;;3.40;2.17;;;8.50;99.90;;;;;;4993229;28;20214;-81
2021/11/02 10:40:14;;;;;;;3.80;3.00;;;8.50;99.90;;;;;;5003000;28;20248;-81
2021/11/02 10:43:04;;;;;;;2.88;2.58;;;8.70;99.90;;;;;;4996187;28;20216;-81
2021/11/02 10:45:33;;;;;;;4.07;2.20;;;8.80;99.90;;;;;;4979438;28;20217;-81
2021/11/02 10:48:05;;;;;;;3.17;2.70;;;8.70;99.90;;;;;;5006076;28;20200;-83
2021/11/02 10:50:36;;;;;;;2.00;1.90;;;8.70;99.90;;;;;;5018893;28;20227;-82
2021/11/02 10:53:05;;;;;;;2.00;1.80;;;8.70;99.90;;;;;;5019020;28;20231;-80
2021/11/02 10:55:48;;;;;;;4.78;2.40;;;8.80;99.90;;;;;;5019735;28;20681;-81
2021/11/02 10:58:36;;;;;;;2.08;1.95;;;8.90;99.90;;;;;;5018056;28;20206;-79
2021/11/02 11:01:08;;;;;;;3.65;2.30;;;8.90;99.90;;;;;;5017815;28;20223;-80
2021/11/02 11:03:37;;;;;;;3.42;2.10;;;8.90;99.90;;;;;;5015533;28;20860;-79
2021/11/02 11:06:06;;;;;;;2.15;2.05;;;9.00;99.90;;;;;;5017639;28;20296;-79
2021/11/02 11:08:35;;;;;;;6.35;2.45;;;9.10;99.90;;;;;;5017808;28;20205;-79
2021/11/02 11:11:03;;;;;;;3.40;3.10;;;9.10;99.90;;;;;;5017595;28;20625;-80
2021/11/02 11:13:33;;;;;;;4.80;2.70;;;9.00;99.90;;;;;;5017886;28;20203;-79
2021/11/02 11:16:09;;;;;;;2.58;2.03;;;9.20;99.90;;;;;;5018122;28;20549;-79
2021/11/02 11:18:52;;;;;;;3.28;2.20;;;9.30;99.90;;;;;;5017619;28;20195;-80
2021/11/02 11:21:21;;;;;;;3.15;2.92;;;9.30;99.90;;;;;;5017530;28;20218;-80
2021/11/02 11:23:55;;;;;;;2.55;2.35;;;9.30;99.90;;;;;;5017429;28;20219;-80
2021/11/02 11:26:25;;;;;;;2.38;1.85;;;9.40;99.90;;;;;;5018362;28;20191;-79
2021/11/02 11:28:54;;;;;;;1.73;1.50;;;9.50;99.90;;;;;;5017521;28;20207;-79
2021/11/02 11:31:23;;;;;;;2.13;2.03;;;9.60;99.90;;;;;;5018007;28;20233;-80
2021/11/02 11:34:01;;;;;;;2.42;1.80;;;9.60;99.90;;;;;;5019433;28;20224;-80
2021/11/02 11:36:29;;;;;;;1.20;1.10;;;9.80;99.90;;;;;;5019219;28;20213;-79
2021/11/02 11:39:00;;;;;;;1.38;1.35;;;9.70;99.90;;;;;;5017537;28;20219;-80
2021/11/02 11:41:27;;;;;;;1.80;1.50;;;9.90;99.90;;;;;;5017407;28;20220;-79
2021/11/02 11:43:56;;;;;;;1.20;1.10;;;9.80;99.90;;;;;;5017483;28;20462;-80
2021/11/02 11:46:27;;;;;;;2.08;1.50;;;10.10;99.90;;;;;;5017404;28;20470;-80
2021/11/02 11:48:57;;;;;;;1.50;1.40;;;10.30;99.90;;;;;;5017444;28;20241;-79
2021/11/02 11:51:26;;;;;;;1.37;1.27;;;10.50;99.90;;;;;;5017457;28;20976;-80
2021/11/02 11:54:01;;;;;;;1.40;1.23;;;10.50;99.90;;;;;;5017064;28;20464;-80
2021/11/02 11:56:33;;;;;;;1.20;1.20;;;10.40;99.90;;;;;;5017520;28;20200;-80
2021/11/02 11:59:01;;;;;;;1.43;1.40;;;10.60;99.90;;;;;;5016944;28;20533;-80
2021/11/02 12:01:34;;;;;;;1.20;1.07;;;10.80;99.90;;;;;;5017239;28;20512;-80
2021/11/02 12:04:10;;;;;;;1.20;1.10;;;10.90;99.90;;;;;;5017595;28;20467;-80
2021/11/02 12:06:46;;;;;;;0.83;0.83;;;11.00;99.90;;;;;;5017630;28;20467;-80
2021/11/02 12:09:17;;;;;;;0.90;0.90;;;11.10;99.90;;;;;;5017248;28;21043;-79
2021/11/02 12:11:45;;;;;;;0.93;0.90;;;10.90;99.90;;;;;;5016813;28;20491;-79
2021/11/02 12:14:18;;;;;;;1.47;1.00;;;10.70;99.90;;;;;;5017080;28;20459;-80
2021/11/02 12:16:47;;;;;;;1.43;0.47;;;10.50;99.90;;;;;;5017060;28;20439;-80
2021/11/02 12:19:21;;;;;;;1.35;1.35;;;10.40;99.90;;;;;;5016990;28;20477;-79
2021/11/02 12:22:02;;;;;;;0.80;0.80;;;10.20;99.90;;;;;;5016860;28;20604;-80
2021/11/02 12:24:30;;;;;;;0.90;0.63;;;10.20;99.90;;;;;;5017399;28;20672;-80
2021/11/02 12:27:11;;;;;;;0.50;0.50;;;10.20;99.90;;;;;;5017378;28;20483;-79
2021/11/02 12:29:39;;;;;;;1.37;0.60;;;10.20;99.90;;;;;;5016516;28;20491;-79
2021/11/02 12:32:07;;;;;;;0.50;0.50;;;10.30;99.90;;;;;;5016927;28;20487;-80
2021/11/02 12:34:46;;;;;;;0.30;0.30;;;10.20;99.90;;;;;;5017076;28;20676;-80
2021/11/02 12:37:14;;;;;;;0.77;0.50;;;10.10;99.90;;;;;;5016569;28;20274;-80
2021/11/02 12:39:42;;;;;;;0.30;0.30;;;10.20;99.90;;;;;;5017639;28;20480;-80
2021/11/02 12:42:10;;;;;;;0.43;0.40;;;10.20;99.90;;;;;;5017387;28;20439;-80
2021/11/02 12:44:38;;;;;;;0.60;0.60;;;10.10;99.90;;;;;;5017416;28;20456;-80
2021/11/02 12:50:45;;;;;;;0.30;0.30;;;10.10;99.90;;;;;;5017023;28;20461;-80
2021/11/02 12:57:06;;;;;;;0.30;0.30;;;10.20;99.90;;;;;;5055332;28;20420;-81
2021/11/02 13:03:28;;;;;;;0.47;0.30;;;12.40;99.90;;;;;;5051554;28;20429;-81
2021/11/02 13:06:05;;;;;;;0.30;0.20;;;12.40;99.90;;;;;;5038417;28;20483;-80
2021/11/02 13:08:40;;;;;;;0.70;0.60;;;12.40;99.90;;;;;;5039045;28;20445;-81
2021/11/02 13:11:12;;;;;;;0.40;0.40;;;12.10;99.90;;;;;;5039094;28;20464;-80
2021/11/02 13:14:04;;;;;;;0.50;0.43;;;11.80;99.90;;;;;;5037369;28;20487;-81
2021/11/02 13:16:52;;;;;;;0.60;0.60;;;11.60;99.90;;;;;;5031057;28;20548;-81
2021/11/02 13:19:21;;;;;;;0.73;0.50;;;11.30;99.90;;;;;;5019975;28;20479;-81
2021/11/02 13:21:49;;;;;;;0.50;0.40;;;10.90;99.90;;;;;;5019946;28;20465;-81
2021/11/02 13:24:22;;;;;;;0.60;0.40;;;10.80;99.90;;;;;;5020049;28;20470;-81
2021/11/02 13:26:51;;;;;;;0.50;0.50;;;10.60;99.90;;;;;;5020406;28;20440;-81
2021/11/02 13:29:23;;;;;;;1.63;0.40;;;10.50;99.90;;;;;;5020452;28;20487;-81
2021/11/02 13:31:51;;;;;;;0.40;0.30;;;10.20;99.90;;;;;;5024281;28;20220;-82
2021/11/02 13:34:20;;;;;;;0.45;0.35;;;10.10;99.90;;;;;;5024572;28;20218;-83
2021/11/02 13:37:00;;;;;;;0.30;0.30;;;9.90;99.90;;;;;;5024301;28;20207;-81
2021/11/02 13:39:27;;;;;;;0.50;0.50;;;9.80;99.90;;;;;;5023998;28;20254;-81
2021/11/02 13:41:54;;;;;;;0.30;0.30;;;9.70;99.90;;;;;;5023928;28;20210;-82
2021/11/02 13:44:22;;;;;;;0.30;0.30;;;9.40;99.90;;;;;;5025749;28;20204;-83
2021/11/02 13:46:51;;;;;;;0.40;0.40;;;9.30;99.90;;;;;;5024458;28;20272;-81
2021/11/02 13:49:19;;;;;;;0.45;0.43;;;9.30;99.90;;;;;;5023743;28;20241;-83
2021/11/02 13:51:46;;;;;;;0.35;0.35;;;9.40;99.90;;;;;;5023155;28;20207;-83
2021/11/02 13:54:14;;;;;;;0.45;0.45;;;9.20;99.90;;;;;;5023567;28;20214;-83
2021/11/02 13:56:44;;;;;;;0.32;0.32;;;9.30;99.90;;;;;;5025101;28;20210;-81
2021/11/02 13:59:12;;;;;;;0.30;0.30;;;9.30;99.90;;;;;;5025269;28;20231;-82
2021/11/02 14:01:45;;;;;;;0.45;0.45;;;9.20;99.90;;;;;;5024263;28;20213;-82
2021/11/02 14:04:15;;;;;;;0.40;0.40;;;9.30;99.90;;;;;;5023594;28;20227;-82
2021/11/02 14:06:45;;;;;;;0.57;0.57;;;9.40;99.90;;;;;;5023681;28;20209;-82
2021/11/02 14:09:16;;;;;;;0.50;0.50;;;9.50;99.90;;;;;;5023020;28;20229;-82
2021/11/02 14:11:43;;;;;;;0.65;0.40;;;9.70;99.90;;;;;;5022818;28;20216;-82
2021/11/02 14:14:11;;;;;;;0.40;0.40;;;10.00;99.90;;;;;;5022429;28;20241;-83
2021/11/02 14:16:41;;;;;;;0.40;0.40;;;10.40;99.90;;;;;;5022693;28;20456;-81
2021/11/02 14:19:40;;;;;;;0.40;0.30;;;10.80;99.90;;;;;;5022449;28;20209;-82
2021/11/02 14:22:08;;;;;;;0.40;0.40;;;10.80;99.90;;;;;;5022681;28;20209;-83
2021/11/02 14:24:37;;;;;;;0.40;0.40;;;10.60;99.90;;;;;;5022160;28;20207;-82
2021/11/02 14:27:06;;;;;;;0.82;0.50;;;10.50;99.90;;;;;;5022848;28;20212;-83
2021/11/02 14:29:57;;;;;;;0.50;0.50;;;10.40;99.90;;;;;;5022479;28;20232;-82
2021/11/02 14:32:46;;;;;;;0.52;0.52;;;10.00;99.90;;;;;;5012078;28;20309;-82
2021/11/02 14:35:45;;;;;;;0.40;0.40;;;10.10;99.90;;;;;;5021808;28;20213;-83
2021/11/02 14:38:14;;;;;;;2.40;0.50;;;10.10;99.90;;;;;;5021853;28;20216;-82
2021/11/02 14:40:42;;;;;;;0.60;0.60;;;10.00;99.90;;;;;;5021908;28;20484;-82
2021/11/02 14:43:22;;;;;;;0.60;0.60;;;10.10;99.90;;;;;;5022058;28;20205;-82
2021/11/02 14:45:50;;;;;;;0.50;0.50;;;10.20;99.90;;;;;;5022172;28;20473;-82
2021/11/02 14:48:34;;;;;;;0.60;0.60;;;10.10;99.90;;;;;;5022498;28;20491;-82
2021/11/02 14:51:04;;;;;;;0.80;0.50;;;10.00;99.90;;;;;;5021383;28;20744;-82
2021/11/02 14:53:34;;;;;;;0.73;0.70;;;10.00;99.90;;;;;;5021556;28;20499;-82
2021/11/02 14:56:04;;;;;;;0.32;0.32;;;10.10;99.90;;;;;;5021871;28;20545;-82
2021/11/02 14:58:48;;;;;;;0.50;0.50;;;9.90;99.90;;;;;;5021850;28;20555;-83
2021/11/02 15:01:18;;;;;;;0.60;0.60;;;9.80;99.90;;;;;;5021655;28;20227;-82
2021/11/02 15:03:52;;;;;;;0.57;0.57;;;9.60;99.90;;;;;;5022114;28;20298;-82
2021/11/02 15:06:21;;;;;;;0.40;0.40;;;9.50;99.90;;;;;;5021398;28;20731;-82
2021/11/02 15:08:50;;;;;;;0.60;0.60;;;9.40;99.90;;;;;;5021763;28;20208;-81
2021/11/02 15:11:19;;;;;;;12.30;1.15;;;9.50;99.90;;;;;;5021691;28;20234;-82
2021/11/02 15:13:50;;;;;;;1.95;0.70;;;9.50;99.90;;;;;;5020519;28;20235;-81
2021/11/02 15:16:18;;;;;;;0.52;0.50;;;9.50;99.90;;;;;;5020300;28;20205;-81
2021/11/02 15:18:47;;;;;;;0.70;0.60;;;9.40;99.90;;;;;;5021308;28;20302;-81
2021/11/02 15:21:21;;;;;;;0.60;0.60;;;9.30;99.90;;;;;;5021274;28;20243;-81
2021/11/02 15:23:50;;;;;;;0.60;0.60;;;9.20;99.90;;;;;;5020959;28;20206;-81
2021/11/02 15:26:18;;;;;;;1.20;0.60;;;9.10;99.90;;;;;;5021587;28;20219;-81
2021/11/02 15:28:47;;;;;;;0.85;0.55;;;8.90;99.90;;;;;;5020780;28;20210;-81
2021/11/02 15:31:16;;;;;;;0.38;0.38;;;8.80;99.90;;;;;;5021538;28;20231;-81
2021/11/02 15:33:43;;;;;;;1.05;1.02;;;8.70;99.90;;;;;;5020690;28;20223;-81
2021/11/02 15:36:21;;;;;;;0.70;0.70;;;8.70;99.90;;;;;;5021145;28;20218;-81
2021/11/02 15:39:00;;;;;;;0.50;0.50;;;8.70;99.90;;;;;;5021300;28;20212;-81
2021/11/02 15:41:28;;;;;;;0.38;0.38;;;8.60;99.90;;;;;;5021554;28;20267;-81
2021/11/02 15:43:57;;;;;;;0.50;0.50;;;8.70;99.90;;;;;;5020900;28;20203;-81
2021/11/02 15:46:31;;;;;;;0.70;0.70;;;8.60;99.90;;;;;;5021227;28;20211;-79
2021/11/02 15:48:58;;;;;;;0.63;0.63;;;8.50;99.90;;;;;;5021457;28;20211;-81
2021/11/02 15:51:29;;;;;;;0.80;0.80;;;8.30;99.90;;;;;;5020763;28;20217;-81
2021/11/02 15:53:59;;;;;;;0.70;0.70;;;8.30;99.90;;;;;;5020481;28;20269;-80
2021/11/02 15:56:28;;;;;;;0.50;0.50;;;8.30;99.90;;;;;;5021371;28;20219;-81
2021/11/02 15:58:59;;;;;;;0.50;0.50;;;8.30;99.90;;;;;;5021342;28;20290;-80
2021/11/02 16:01:37;;;;;;;0.55;0.55;;;8.20;99.90;;;;;;5020603;28;20214;-81
2021/11/02 16:04:09;;;;;;;0.50;0.50;;;8.20;99.90;;;;;;5021018;28;20203;-81
2021/11/02 16:06:50;;;;;;;0.65;0.65;;;8.20;99.90;;;;;;5021146;28;20207;-81
2021/11/02 16:09:18;;;;;;;2.97;1.00;;;8.10;99.90;;;;;;5020917;28;20234;-81
2021/11/02 16:11:55;;;;;;;0.57;0.57;;;8.10;99.90;;;;;;5030537;28;20215;-80
2021/11/02 16:14:23;;;;;;;1.48;0.60;;;8.10;99.90;;;;;;5024510;28;20281;-81
2021/11/02 16:16:50;;;;;;;0.93;0.60;;;8.00;99.90;;;;;;5020151;28;20246;-81
2021/11/02 16:19:19;;;;;;;1.23;0.80;;;8.00;99.90;;;;;;5020446;28;20227;-80
2021/11/02 16:21:47;;;;;;;0.77;0.77;;;8.00;99.90;;;;;;5020535;28;20275;-81
2021/11/02 16:24:14;;;;;;;0.98;0.98;;;7.90;99.90;;;;;;5020239;28;20203;-81
2021/11/02 16:26:42;;;;;;;0.77;0.77;;;8.00;99.90;;;;;;5020870;28;20203;-81
2021/11/02 16:29:13;;;;;;;1.40;1.05;;;8.00;99.90;;;;;;5020284;28;20603;-80
2021/11/02 16:31:41;;;;;;;1.00;1.00;;;8.00;99.90;;;;;;5020107;28;20210;-81
2021/11/02 16:34:20;;;;;;;1.52;1.20;;;8.00;99.90;;;;;;5020443;28;20227;-81
2021/11/02 16:36:48;;;;;;;2.13;1.00;;;8.10;99.90;;;;;;5020915;28;20207;-81
2021/11/02 16:39:21;;;;;;;1.58;1.10;;;8.20;99.90;;;;;;5020421;28;20731;-82
2021/11/02 16:41:51;;;;;;;1.70;1.60;;;8.30;99.90;;;;;;5020268;28;20214;-81
2021/11/02 16:44:29;;;;;;;1.20;1.15;;;8.30;99.90;;;;;;5019119;28;20195;-81
2021/11/02 16:47:04;;;;;;;2.35;2.25;;;8.40;99.90;;;;;;5019078;28;20221;-80
2021/11/02 16:49:31;;;;;;;2.80;2.60;;;8.30;99.90;;;;;;5019192;28;20231;-81
2021/11/02 16:52:00;;;;;;;3.92;2.95;;;8.10;99.90;;;;;;5019651;28;20207;-81
2021/11/02 16:54:28;;;;;;;6.00;3.97;;;8.00;99.90;;;;;;5020607;28;20226;-80
2021/11/02 16:57:04;;;;;;;4.43;3.83;;;7.90;99.90;;;;;;5020991;28;20213;-81
2021/11/02 16:59:52;;;;;;;11.02;9.93;;;7.90;99.90;;;;;;5021010;28;20248;-81
2021/11/02 17:02:21;;;;;;;4.68;4.10;;;8.00;99.90;;;;;;5019611;28;20234;-81
2021/11/02 17:05:06;;;;;;;2.20;2.10;;;8.00;99.90;;;;;;5019669;28;20203;-80
2021/11/02 17:07:36;;;;;;;2.42;2.22;;;7.90;99.90;;;;;;5019920;28;20230;-83
2021/11/02 17:10:29;;;;;;;4.35;4.05;;;8.00;99.90;;;;;;5019880;28;20223;-81
2021/11/02 17:13:00;;;;;;;2.00;1.85;;;8.10;99.90;;;;;;5016343;28;20261;-81
2021/11/02 17:15:29;;;;;;;2.55;2.35;;;8.00;99.90;;;;;;5018829;28;20275;-81
2021/11/02 17:17:57;;;;;;;1.63;1.52;;;8.00;99.90;;;;;;5018670;28;20221;-81
2021/11/02 17:20:23;;;;;;;1.30;1.20;;;8.00;99.90;;;;;;5018365;28;20231;-81
2021/11/02 17:22:52;;;;;;;1.10;1.10;;;8.00;99.90;;;;;;5018006;28;20207;-80
2021/11/02 17:25:22;;;;;;;1.83;1.50;;;8.10;99.90;;;;;;5018369;28;20218;-80
2021/11/02 17:27:50;;;;;;;1.38;1.38;;;8.20;99.90;;;;;;5018335;28;20206;-81
2021/11/02 17:30:22;;;;;;;1.60;1.48;;;8.10;99.90;;;;;;5018564;28;20733;-82
2021/11/02 17:32:49;;;;;;;1.90;1.60;;;8.20;99.90;;;;;;5016837;28;20219;-81
2021/11/02 17:35:18;;;;;;;2.80;1.90;;;8.30;99.90;;;;;;5019952;28;20230;-83
2021/11/02 17:37:46;;;;;;;1.75;1.65;;;8.30;99.90;;;;;;5020491;28;20199;-83
2021/11/02 17:40:15;;;;;;;2.28;2.08;;;8.30;99.90;;;;;;5024988;28;20314;-80
2021/11/02 17:42:44;;;;;;;3.08;2.25;;;8.40;99.90;;;;;;5024589;28;20195;-82
2021/11/02 17:45:12;;;;;;;2.15;2.05;;;8.20;99.90;;;;;;5024631;28;20203;-82
2021/11/02 17:47:43;;;;;;;2.63;2.00;;;8.10;99.90;;;;;;5024199;28;20199;-81
2021/11/02 17:50:53;;;;;;;3.08;2.72;;;8.00;99.90;;;;;;5025855;28;20254;-82
2021/11/02 17:53:20;;;;;;;2.88;2.20;;;8.00;99.90;;;;;;5023981;28;20225;-82
2021/11/02 17:55:47;;;;;;;3.70;3.40;;;7.80;99.90;;;;;;5023809;28;20234;-82
2021/11/02 17:58:15;;;;;;;2.85;2.60;;;7.90;99.90;;;;;;5023855;28;20203;-82
2021/11/02 18:00:43;;;;;;;4.47;3.45;;;7.80;99.90;;;;;;5024418;28;20228;-82
2021/11/02 18:03:11;;;;;;;3.10;2.90;;;7.70;99.90;;;;;;5026289;28;20210;-81